Bearskin Lake, Canada
Current Conditions -  °F | °C
As of 2:00 AM on Saturday 29 Nov 2014 (Local Time) from CYTL Reporting Station
Overcast Overcast  
Wind Chill: -23°   Ceiling: 10000
Heat Index: -11°   Visibility: 9mi
Dew Point: -15°   Wind: 5mph
Humidity: 84%   Direction: 150°SSE
Pressure: 29.91"   Gusts: NA
Location:  53.93°N, 90.98°W
Report Text: CYTL 290800Z AUTO 15004KT 9SM OVC100 M24/M26 A2991 RMK SLP157
Loading
Personal Weather Stations






























Interactive Weather Map New forecast layout! Learn more

10-Day Weather Forecast

Advertisements
Track Severe Weather on mobile